createdAt,value
2022-12-31T00:00:23.726Z,12.92
2022-12-31T00:01:23.646Z,12.93
2022-12-31T00:02:23.734Z,12.93
2022-12-31T00:03:23.724Z,12.93
2022-12-31T00:04:23.587Z,12.92
2022-12-31T00:05:23.583Z,12.92
2022-12-31T00:06:23.590Z,12.92
2022-12-31T00:07:23.571Z,12.92
2022-12-31T00:08:23.552Z,12.92
2022-12-31T00:09:23.558Z,12.89
2022-12-31T00:10:23.529Z,12.89
2022-12-31T00:11:23.536Z,12.89
2022-12-31T00:12:23.501Z,12.92
2022-12-31T00:13:23.591Z,12.92
2022-12-31T00:14:23.476Z,12.93
2022-12-31T00:15:23.487Z,12.92
2022-12-31T00:16:23.520Z,12.95
2022-12-31T00:17:23.455Z,12.93
2022-12-31T00:18:23.447Z,12.93
2022-12-31T00:19:23.430Z,12.93
2022-12-31T00:20:23.410Z,12.92
2022-12-31T00:21:23.403Z,12.89
2022-12-31T00:22:23.426Z,12.93
2022-12-31T00:23:23.403Z,12.92
2022-12-31T00:24:23.426Z,12.89
2022-12-31T00:25:23.368Z,12.92
2022-12-31T00:26:23.368Z,12.88
2022-12-31T00:27:23.336Z,12.92
2022-12-31T00:28:23.338Z,12.95
2022-12-31T00:29:23.341Z,12.92
2022-12-31T00:30:23.310Z,12.92
2022-12-31T00:31:23.366Z,12.96
2022-12-31T00:32:23.300Z,12.95
2022-12-31T00:33:23.334Z,12.95
2022-12-31T00:34:23.257Z,12.97
2022-12-31T00:35:23.278Z,12.96
2022-12-31T00:36:23.241Z,12.93
2022-12-31T00:37:23.289Z,12.93
2022-12-31T00:38:23.213Z,12.95
2022-12-31T00:39:23.245Z,12.96
2022-12-31T00:40:23.193Z,12.96
2022-12-31T00:41:23.180Z,12.97
2022-12-31T00:42:23.189Z,12.97
2022-12-31T00:43:23.171Z,12.97
2022-12-31T00:44:23.151Z,12.99
2022-12-31T00:45:23.140Z,12.97
2022-12-31T00:46:23.148Z,12.96
2022-12-31T00:47:23.143Z,12.97
2022-12-31T00:48:23.121Z,12.97
2022-12-31T00:49:23.116Z,12.97
2022-12-31T00:50:23.081Z,12.95
2022-12-31T00:51:23.110Z,12.93
2022-12-31T00:52:23.065Z,12.92
2022-12-31T00:53:23.082Z,12.93
2022-12-31T00:54:23.040Z,12.95
2022-12-31T00:55:23.037Z,12.96
2022-12-31T00:56:23.042Z,12.99
2022-12-31T00:57:23.011Z,12.96
2022-12-31T00:58:23.023Z,12.96
2022-12-31T00:59:22.987Z,12.96
2022-12-31T01:00:22.973Z,12.96
2022-12-31T01:01:23.078Z,12.97
2022-12-31T01:02:23.121Z,12.96
2022-12-31T01:03:23.009Z,12.96
2022-12-31T01:04:22.935Z,12.99
2022-12-31T01:05:22.936Z,12.97
2022-12-31T01:06:22.904Z,12.97
2022-12-31T01:07:22.910Z,13.00
2022-12-31T01:08:22.890Z,13.03
2022-12-31T01:09:22.902Z,13.02
2022-12-31T01:10:22.865Z,13.03
2022-12-31T01:11:22.983Z,13.03
2022-12-31T01:12:22.843Z,13.03
2022-12-31T01:13:22.834Z,13.03
2022-12-31T01:14:22.854Z,13.03
2022-12-31T01:15:22.823Z,13.02
2022-12-31T01:16:22.812Z,13.02
2022-12-31T01:17:22.795Z,13.03
2022-12-31T01:18:22.780Z,13.02
2022-12-31T01:19:22.815Z,13.02
2022-12-31T01:20:22.765Z,13.02
2022-12-31T01:21:22.753Z,13.02
2022-12-31T01:22:22.749Z,13.03
2022-12-31T01:23:22.739Z,13.04
2022-12-31T01:24:22.728Z,13.06
2022-12-31T01:25:22.724Z,13.04
2022-12-31T01:26:22.702Z,13.06
2022-12-31T01:27:22.686Z,13.07
2022-12-31T01:28:22.665Z,13.07
2022-12-31T01:29:22.667Z,13.07
2022-12-31T01:30:22.676Z,13.09
2022-12-31T01:31:22.748Z,13.06
2022-12-31T01:32:22.645Z,13.06
2022-12-31T01:33:22.618Z,13.06
2022-12-31T01:34:22.605Z,13.06
2022-12-31T01:35:22.608Z,13.07
2022-12-31T01:36:25.938Z,13.06
2022-12-31T01:37:22.600Z,13.06
2022-12-31T01:38:22.569Z,13.06
2022-12-31T01:39:22.556Z,13.07
2022-12-31T01:40:22.569Z,13.06
2022-12-31T01:41:22.545Z,13.06
2022-12-31T01:42:22.526Z,13.06
2022-12-31T01:43:22.508Z,13.04
2022-12-31T01:44:22.505Z,13.07
2022-12-31T01:45:22.488Z,13.06
2022-12-31T01:46:22.535Z,13.06
2022-12-31T01:47:22.476Z,13.06
2022-12-31T01:48:22.470Z,13.04
2022-12-31T01:49:22.475Z,13.04
2022-12-31T01:50:22.439Z,13.03
2022-12-31T01:51:22.451Z,13.04
2022-12-31T01:52:22.417Z,13.04
2022-12-31T01:53:22.401Z,13.04
2022-12-31T01:54:22.402Z,13.06
2022-12-31T01:55:22.393Z,13.04
2022-12-31T01:56:22.394Z,13.04
2022-12-31T01:57:22.363Z,13.03
2022-12-31T01:58:22.353Z,13.03
2022-12-31T01:59:22.357Z,13.03
2022-12-31T02:00:22.338Z,13.03
2022-12-31T02:01:22.479Z,13.02
2022-12-31T02:02:22.499Z,13.03
2022-12-31T02:03:22.347Z,13.02
2022-12-31T02:04:22.279Z,13.00
2022-12-31T02:05:22.274Z,13.02
2022-12-31T02:06:22.285Z,13.00
2022-12-31T02:07:22.285Z,13.00
2022-12-31T02:08:22.254Z,13.00
2022-12-31T02:09:22.231Z,13.02
2022-12-31T02:10:22.216Z,13.00
2022-12-31T02:11:22.209Z,13.00
2022-12-31T02:12:22.226Z,12.99
2022-12-31T02:13:22.183Z,12.97
2022-12-31T02:14:22.178Z,12.99
2022-12-31T02:15:22.166Z,12.97
2022-12-31T02:16:22.202Z,12.97
2022-12-31T02:17:22.157Z,12.97
2022-12-31T02:18:22.150Z,12.97
2022-12-31T02:19:22.141Z,12.97
2022-12-31T02:20:22.104Z,12.99
2022-12-31T02:21:22.112Z,12.99
2022-12-31T02:22:22.082Z,12.97
2022-12-31T02:23:22.107Z,12.99
2022-12-31T02:24:22.063Z,12.97
2022-12-31T02:25:22.064Z,13.00
2022-12-31T02:26:22.046Z,12.97
2022-12-31T02:27:22.032Z,12.99
2022-12-31T02:28:22.048Z,12.97
2022-12-31T02:29:22.024Z,12.97
2022-12-31T02:30:22.008Z,12.97
2022-12-31T02:31:22.051Z,12.96
2022-12-31T02:32:21.981Z,12.96
2022-12-31T02:33:21.987Z,12.95
2022-12-31T02:34:21.984Z,12.95
2022-12-31T02:35:21.943Z,12.93
2022-12-31T02:36:21.943Z,12.93
2022-12-31T02:37:21.932Z,12.93
2022-12-31T02:38:21.915Z,12.93
2022-12-31T02:39:21.916Z,12.89
2022-12-31T02:40:21.917Z,12.92
2022-12-31T02:41:21.894Z,12.92
2022-12-31T02:42:21.877Z,12.93
2022-12-31T02:43:21.891Z,12.92
2022-12-31T02:44:21.863Z,12.92
2022-12-31T02:45:21.848Z,12.92
2022-12-31T02:46:21.848Z,12.96
2022-12-31T02:47:21.818Z,12.96
2022-12-31T02:48:21.822Z,12.99
2022-12-31T02:49:21.819Z,13.03
2022-12-31T02:50:21.804Z,13.04
2022-12-31T02:51:21.776Z,13.07
2022-12-31T02:52:21.787Z,13.04
2022-12-31T02:53:21.754Z,13.06
2022-12-31T02:54:21.779Z,13.07
2022-12-31T02:55:21.729Z,13.11
2022-12-31T02:56:21.731Z,13.11
2022-12-31T02:57:21.713Z,13.12
2022-12-31T02:58:21.709Z,13.09
2022-12-31T02:59:21.712Z,13.11
2022-12-31T03:00:21.689Z,13.09
2022-12-31T03:01:21.841Z,13.09
2022-12-31T03:02:21.933Z,13.09
2022-12-31T03:03:21.646Z,13.11
2022-12-31T03:04:21.674Z,13.12
2022-12-31T03:05:21.648Z,13.12
2022-12-31T03:06:21.609Z,13.11
2022-12-31T03:07:21.610Z,13.11
2022-12-31T03:08:21.594Z,13.12
2022-12-31T03:09:21.577Z,13.12
2022-12-31T03:10:21.598Z,13.14
2022-12-31T03:11:21.548Z,13.14
2022-12-31T03:12:21.565Z,13.12
2022-12-31T03:13:21.542Z,13.14
2022-12-31T03:14:21.530Z,13.15
2022-12-31T03:15:21.535Z,13.15
2022-12-31T03:16:21.589Z,13.14
2022-12-31T03:17:21.488Z,13.12
2022-12-31T03:18:21.498Z,13.12
2022-12-31T03:19:21.462Z,13.11
2022-12-31T03:20:21.483Z,13.12
2022-12-31T03:21:21.462Z,13.12
2022-12-31T03:22:21.451Z,13.09
2022-12-31T03:23:21.460Z,13.11
2022-12-31T03:24:21.441Z,13.11
2022-12-31T03:25:21.402Z,13.11
2022-12-31T03:26:21.390Z,13.09
2022-12-31T03:27:21.381Z,13.09
2022-12-31T03:28:21.381Z,13.12
2022-12-31T03:29:21.451Z,13.12
2022-12-31T03:30:21.370Z,13.12
2022-12-31T03:31:21.387Z,13.17
2022-12-31T03:32:21.343Z,13.18
2022-12-31T03:33:21.314Z,13.18
2022-12-31T03:34:21.337Z,13.17
2022-12-31T03:35:21.293Z,13.18
2022-12-31T03:36:21.283Z,13.17
2022-12-31T03:37:21.283Z,13.15
2022-12-31T03:38:21.272Z,13.12
2022-12-31T03:39:21.276Z,13.12
2022-12-31T03:40:21.250Z,13.11
2022-12-31T03:41:21.231Z,13.07
2022-12-31T03:42:21.237Z,13.06
2022-12-31T03:43:21.204Z,13.03
2022-12-31T03:44:21.225Z,13.02
2022-12-31T03:45:21.185Z,13.00
2022-12-31T03:46:21.201Z,13.00
2022-12-31T03:47:21.181Z,13.00
2022-12-31T03:48:21.177Z,12.99
2022-12-31T03:49:21.153Z,12.97
2022-12-31T03:50:21.135Z,12.97
2022-12-31T03:51:21.122Z,12.97
2022-12-31T03:52:21.111Z,12.96
2022-12-31T03:53:21.135Z,12.95
2022-12-31T03:54:21.093Z,12.93
2022-12-31T03:55:21.086Z,12.93
2022-12-31T03:56:21.075Z,12.93
2022-12-31T03:57:21.060Z,12.92
2022-12-31T03:58:21.053Z,12.89
2022-12-31T03:59:21.069Z,12.92
2022-12-31T04:00:21.027Z,12.88
2022-12-31T04:01:21.103Z,12.88
2022-12-31T04:02:28.131Z,12.85
2022-12-31T04:03:22.046Z,12.85
2022-12-31T04:04:20.985Z,12.84
2022-12-31T04:05:21.007Z,12.84
2022-12-31T04:06:20.970Z,12.84
2022-12-31T04:07:20.948Z,12.82
2022-12-31T04:08:20.958Z,12.82
2022-12-31T04:09:20.945Z,12.81
2022-12-31T04:10:20.942Z,12.81
2022-12-31T04:11:21.315Z,12.81
2022-12-31T04:12:20.898Z,12.78
2022-12-31T04:13:20.910Z,12.78
2022-12-31T04:14:20.895Z,12.78
2022-12-31T04:15:20.869Z,12.78
2022-12-31T04:16:20.930Z,12.77
2022-12-31T04:17:20.852Z,12.75
2022-12-31T04:18:20.829Z,12.77
2022-12-31T04:19:20.821Z,12.75
2022-12-31T04:20:20.817Z,12.75
2022-12-31T04:21:20.809Z,12.75
2022-12-31T04:22:20.808Z,12.71
2022-12-31T04:23:20.780Z,12.71
2022-12-31T04:24:20.771Z,12.71
2022-12-31T04:25:20.761Z,12.71
2022-12-31T04:26:20.768Z,12.71
2022-12-31T04:27:20.732Z,12.70
2022-12-31T04:28:20.757Z,12.70
2022-12-31T04:29:20.711Z,12.70
2022-12-31T04:30:20.700Z,12.69
2022-12-31T04:31:20.716Z,12.67
2022-12-31T04:32:20.687Z,12.67
2022-12-31T04:33:20.668Z,12.69
2022-12-31T04:34:20.681Z,12.69
2022-12-31T04:35:20.669Z,12.69
2022-12-31T04:36:20.662Z,12.70
2022-12-31T04:37:20.633Z,12.67
2022-12-31T04:38:20.610Z,12.67
2022-12-31T04:39:20.615Z,12.67
2022-12-31T04:40:20.591Z,12.67
2022-12-31T04:41:20.581Z,12.67
2022-12-31T04:42:20.592Z,12.64
2022-12-31T04:43:20.569Z,12.63
2022-12-31T04:44:20.556Z,12.63
2022-12-31T04:45:20.551Z,12.64
2022-12-31T04:46:20.579Z,12.62
2022-12-31T04:47:23.859Z,12.63
2022-12-31T04:48:20.502Z,12.60
2022-12-31T04:49:20.500Z,12.60
2022-12-31T04:50:20.483Z,12.59
2022-12-31T04:51:20.515Z,12.60
2022-12-31T04:52:20.473Z,12.59
2022-12-31T04:53:20.517Z,12.59
2022-12-31T04:54:20.444Z,12.59
2022-12-31T04:55:20.635Z,12.59
2022-12-31T04:56:20.551Z,12.59
2022-12-31T04:57:20.476Z,12.57
2022-12-31T04:58:20.423Z,12.57
2022-12-31T04:59:20.410Z,12.57
2022-12-31T05:00:20.439Z,12.59
2022-12-31T05:01:20.656Z,12.57
2022-12-31T05:02:20.613Z,12.56
2022-12-31T05:03:20.983Z,12.56
2022-12-31T05:04:20.434Z,12.54
2022-12-31T05:05:20.447Z,12.56
2022-12-31T05:06:20.588Z,12.57
2022-12-31T05:07:20.803Z,12.56
2022-12-31T05:08:20.689Z,12.57
2022-12-31T05:09:20.879Z,12.56
2022-12-31T05:10:20.321Z,12.56
2022-12-31T05:11:20.331Z,12.57
2022-12-31T05:12:20.284Z,12.57
2022-12-31T05:13:20.495Z,12.59
2022-12-31T05:14:21.340Z,12.59
2022-12-31T05:15:21.057Z,12.60
2022-12-31T05:16:21.485Z,12.60
2022-12-31T05:17:21.452Z,12.59
2022-12-31T05:18:20.339Z,12.60
2022-12-31T05:19:20.449Z,12.62
2022-12-31T05:20:20.365Z,12.63
2022-12-31T05:21:20.260Z,12.62
2022-12-31T05:22:20.221Z,12.62
2022-12-31T05:23:20.264Z,12.66
2022-12-31T05:24:21.390Z,12.64
2022-12-31T05:25:20.998Z,12.66
2022-12-31T05:26:20.145Z,12.67
2022-12-31T05:27:20.118Z,12.66
2022-12-31T05:28:20.125Z,12.67
2022-12-31T05:29:20.099Z,12.69
2022-12-31T05:30:20.127Z,12.69
2022-12-31T05:31:20.182Z,12.71
2022-12-31T05:32:20.263Z,12.75
2022-12-31T05:33:20.045Z,12.74
2022-12-31T05:34:20.074Z,12.75
2022-12-31T05:35:20.047Z,12.77
2022-12-31T05:36:20.052Z,12.81
2022-12-31T05:37:19.988Z,12.85
2022-12-31T05:38:20.189Z,12.93
2022-12-31T05:39:19.950Z,12.95
2022-12-31T05:40:19.946Z,12.97
2022-12-31T05:41:19.936Z,13.03
2022-12-31T05:42:19.928Z,13.06
2022-12-31T05:43:19.939Z,13.12
2022-12-31T05:44:19.904Z,13.14
2022-12-31T05:45:22.777Z,13.18
2022-12-31T05:46:20.918Z,13.29
2022-12-31T05:47:19.889Z,13.33
2022-12-31T05:48:19.883Z,13.38
2022-12-31T05:49:19.855Z,13.43
2022-12-31T05:50:19.840Z,13.47
2022-12-31T05:51:19.827Z,13.52
2022-12-31T05:52:19.813Z,13.55
2022-12-31T05:53:19.803Z,13.61
2022-12-31T05:54:19.814Z,13.63
2022-12-31T05:55:19.803Z,13.65
2022-12-31T05:56:19.774Z,13.70
2022-12-31T05:57:19.771Z,13.80
2022-12-31T05:58:19.755Z,13.81
2022-12-31T05:59:19.771Z,13.83
2022-12-31T06:00:19.729Z,13.83
2022-12-31T06:01:19.820Z,13.84
2022-12-31T06:02:19.721Z,13.87
2022-12-31T06:03:19.774Z,13.88
2022-12-31T06:04:19.682Z,13.89
2022-12-31T06:05:24.272Z,13.95
2022-12-31T06:06:20.682Z,13.95
2022-12-31T06:07:19.659Z,13.95
2022-12-31T06:08:19.665Z,13.95
2022-12-31T06:09:19.645Z,14.04
2022-12-31T06:10:19.616Z,14.07
2022-12-31T06:11:19.603Z,14.09
2022-12-31T06:12:19.618Z,14.07
2022-12-31T06:13:19.593Z,13.62
2022-12-31T06:14:19.573Z,13.30
2022-12-31T06:15:19.581Z,13.20
2022-12-31T06:16:19.622Z,13.11
2022-12-31T06:17:19.539Z,13.02
2022-12-31T06:18:19.525Z,12.97
2022-12-31T06:19:19.526Z,12.93
2022-12-31T06:20:19.521Z,12.92
2022-12-31T06:21:19.503Z,12.92
2022-12-31T06:22:19.510Z,12.92
2022-12-31T06:23:19.486Z,12.87
2022-12-31T06:24:19.467Z,12.85
2022-12-31T06:25:19.465Z,12.87
2022-12-31T06:26:19.446Z,12.87
2022-12-31T06:27:19.456Z,12.85
2022-12-31T06:28:20.619Z,12.84
2022-12-31T06:29:19.437Z,12.81
2022-12-31T06:30:19.398Z,12.82
2022-12-31T06:31:19.438Z,12.81
2022-12-31T06:32:19.385Z,12.79
2022-12-31T06:33:19.411Z,12.79
2022-12-31T06:34:19.358Z,12.74
2022-12-31T06:35:19.353Z,12.66
2022-12-31T06:36:19.341Z,12.63
2022-12-31T06:37:19.318Z,12.63
2022-12-31T06:38:19.324Z,12.62
2022-12-31T06:39:19.327Z,12.63
2022-12-31T06:40:19.290Z,12.60
2022-12-31T06:41:19.291Z,12.60
2022-12-31T06:42:19.278Z,12.60
2022-12-31T06:43:19.288Z,12.60
2022-12-31T06:44:19.259Z,12.62
2022-12-31T06:45:19.238Z,12.60
2022-12-31T06:46:19.286Z,12.60
2022-12-31T06:47:19.218Z,12.59
2022-12-31T06:48:19.199Z,12.59
2022-12-31T06:49:19.211Z,12.60
2022-12-31T06:50:19.194Z,12.60
2022-12-31T06:51:19.189Z,12.59
2022-12-31T06:52:19.170Z,12.59
2022-12-31T06:53:19.155Z,12.59
2022-12-31T06:54:19.181Z,12.57
2022-12-31T06:55:19.126Z,12.59
2022-12-31T06:56:19.118Z,12.57
2022-12-31T06:57:19.101Z,12.56
2022-12-31T06:58:19.101Z,12.56
2022-12-31T06:59:19.111Z,12.57
2022-12-31T07:00:19.106Z,12.57
2022-12-31T07:01:19.180Z,12.57
2022-12-31T07:02:19.076Z,12.57
2022-12-31T07:03:19.094Z,12.59
2022-12-31T07:04:19.031Z,12.57
2022-12-31T07:05:19.026Z,12.57
2022-12-31T07:06:19.039Z,12.57
2022-12-31T07:07:19.011Z,12.57
2022-12-31T07:08:18.996Z,12.59
2022-12-31T07:09:18.979Z,12.59
2022-12-31T07:10:22.712Z,12.59
2022-12-31T07:11:19.983Z,12.57
2022-12-31T07:12:18.969Z,12.59
2022-12-31T07:13:18.933Z,12.60
2022-12-31T07:14:18.939Z,12.60
2022-12-31T07:15:18.916Z,12.60
2022-12-31T07:16:18.932Z,12.62
2022-12-31T07:17:18.954Z,12.63
2022-12-31T07:18:18.903Z,12.63
2022-12-31T07:19:18.872Z,12.63
2022-12-31T07:20:18.860Z,12.64
2022-12-31T07:21:18.853Z,12.64
2022-12-31T07:22:18.843Z,12.63
2022-12-31T07:23:18.848Z,12.63
2022-12-31T07:24:18.831Z,12.64
2022-12-31T07:25:18.816Z,12.64
2022-12-31T07:26:18.795Z,12.62
2022-12-31T07:27:18.787Z,12.63
2022-12-31T07:28:18.797Z,12.63
2022-12-31T07:29:18.766Z,12.64
2022-12-31T07:30:18.753Z,12.64
2022-12-31T07:31:18.808Z,12.63
2022-12-31T07:32:18.731Z,12.64
2022-12-31T07:33:18.795Z,12.63
2022-12-31T07:34:18.752Z,12.63
2022-12-31T07:35:18.699Z,12.64
2022-12-31T07:36:18.685Z,12.71
2022-12-31T07:37:18.677Z,12.77
2022-12-31T07:38:18.687Z,12.78
2022-12-31T07:39:18.647Z,12.79
2022-12-31T07:40:18.635Z,12.81
2022-12-31T07:41:18.626Z,12.84
2022-12-31T07:42:18.636Z,12.88
2022-12-31T07:43:18.627Z,12.92
2022-12-31T07:44:18.606Z,12.93
2022-12-31T07:45:18.593Z,13.04
2022-12-31T07:46:18.610Z,13.15
2022-12-31T07:47:18.556Z,13.21
2022-12-31T07:48:18.578Z,13.27
2022-12-31T07:49:18.557Z,13.40
2022-12-31T07:50:18.538Z,13.43
2022-12-31T07:51:18.515Z,13.52
2022-12-31T07:52:18.515Z,13.63
2022-12-31T07:53:18.495Z,13.71
2022-12-31T07:54:18.518Z,13.73
2022-12-31T07:55:18.485Z,13.77
2022-12-31T07:56:18.485Z,13.77
2022-12-31T07:57:18.464Z,13.77
2022-12-31T07:58:18.452Z,13.77
2022-12-31T07:59:23.897Z,13.84
2022-12-31T08:00:19.419Z,13.91
2022-12-31T08:01:18.483Z,13.96
2022-12-31T08:02:18.617Z,14.06
2022-12-31T08:03:18.386Z,14.13
2022-12-31T08:04:18.419Z,14.21
2022-12-31T08:05:18.368Z,14.27
2022-12-31T08:06:18.389Z,14.27
2022-12-31T08:07:18.348Z,14.29
2022-12-31T08:08:18.338Z,14.32
2022-12-31T08:09:18.330Z,14.32
2022-12-31T08:10:18.546Z,14.37
2022-12-31T08:11:18.300Z,14.43
2022-12-31T08:12:18.300Z,14.46
2022-12-31T08:13:18.320Z,14.52
2022-12-31T08:14:18.303Z,14.50
2022-12-31T08:15:18.317Z,14.52
2022-12-31T08:16:18.301Z,14.54
2022-12-31T08:17:18.243Z,14.54
2022-12-31T08:18:18.221Z,14.61
2022-12-31T08:19:18.222Z,14.68
2022-12-31T08:20:18.202Z,14.69
2022-12-31T08:21:18.224Z,14.75
2022-12-31T08:22:18.215Z,14.80
2022-12-31T08:23:18.269Z,14.81
2022-12-31T08:24:18.164Z,14.81
2022-12-31T08:25:18.154Z,14.84
2022-12-31T08:26:18.149Z,14.87
2022-12-31T08:27:18.143Z,14.94
2022-12-31T08:28:18.127Z,14.95
2022-12-31T08:29:18.103Z,15.11
2022-12-31T08:30:18.105Z,15.15
2022-12-31T08:31:18.173Z,15.19
2022-12-31T08:32:18.094Z,15.24
2022-12-31T08:33:18.064Z,15.45
2022-12-31T08:34:18.054Z,15.51
2022-12-31T08:35:18.043Z,15.57
2022-12-31T08:36:18.042Z,15.66
2022-12-31T08:37:18.042Z,15.68
2022-12-31T08:38:18.045Z,15.78
2022-12-31T08:39:18.004Z,15.79
2022-12-31T08:40:17.985Z,15.85
2022-12-31T08:41:17.978Z,15.88
2022-12-31T08:42:17.969Z,15.84
2022-12-31T08:43:18.113Z,15.94
2022-12-31T08:44:17.944Z,15.94
2022-12-31T08:45:17.937Z,15.92
2022-12-31T08:46:17.961Z,15.93
2022-12-31T08:47:17.909Z,15.88
2022-12-31T08:48:17.903Z,15.84
2022-12-31T08:49:17.911Z,15.86
2022-12-31T08:50:17.883Z,15.82
2022-12-31T08:51:17.871Z,15.84
2022-12-31T08:52:17.860Z,15.92
2022-12-31T08:53:17.858Z,15.94
2022-12-31T08:54:17.854Z,15.96
2022-12-31T08:55:17.827Z,15.99
2022-12-31T08:56:17.806Z,16.04
2022-12-31T08:57:17.799Z,16.18
2022-12-31T08:58:17.816Z,16.30
2022-12-31T08:59:17.804Z,16.26
2022-12-31T09:00:17.802Z,16.25
2022-12-31T09:01:17.855Z,16.23
2022-12-31T09:02:17.784Z,16.16
2022-12-31T09:03:17.734Z,16.18
2022-12-31T09:04:17.754Z,16.20
2022-12-31T09:05:17.741Z,16.20
2022-12-31T09:06:17.710Z,16.15
2022-12-31T09:07:17.689Z,16.20
2022-12-31T09:08:17.681Z,16.25
2022-12-31T09:09:17.672Z,16.22
2022-12-31T09:10:17.673Z,16.18
2022-12-31T09:11:22.928Z,16.16
2022-12-31T09:12:18.636Z,16.15
2022-12-31T09:13:17.639Z,16.22
2022-12-31T09:14:17.642Z,16.31
2022-12-31T09:15:17.607Z,16.33
2022-12-31T09:16:17.615Z,16.31
2022-12-31T09:17:17.647Z,16.34
2022-12-31T09:18:17.567Z,16.41
2022-12-31T09:19:17.665Z,16.41
2022-12-31T09:20:17.566Z,16.42
2022-12-31T09:21:17.531Z,16.44
2022-12-31T09:22:18.295Z,16.44
2022-12-31T09:23:17.532Z,16.44
2022-12-31T09:24:17.512Z,16.44
2022-12-31T09:25:17.502Z,16.50
2022-12-31T09:26:17.485Z,16.49
2022-12-31T09:27:20.098Z,16.49
2022-12-31T09:28:18.481Z,16.45
2022-12-31T09:29:17.455Z,16.48
2022-12-31T09:30:17.436Z,16.42
2022-12-31T09:31:17.519Z,16.38
2022-12-31T09:32:17.413Z,16.35
2022-12-31T09:33:17.405Z,16.35
2022-12-31T09:34:17.397Z,16.38
2022-12-31T09:35:17.374Z,16.40
2022-12-31T09:36:17.373Z,16.45
2022-12-31T09:37:17.382Z,16.44
2022-12-31T09:38:17.372Z,16.50
2022-12-31T09:39:17.338Z,16.52
2022-12-31T09:40:17.323Z,16.52
2022-12-31T09:41:17.326Z,16.59
2022-12-31T09:42:17.304Z,16.56
2022-12-31T09:43:17.317Z,16.68
2022-12-31T09:44:17.282Z,16.70
2022-12-31T09:45:17.299Z,16.67
2022-12-31T09:46:17.319Z,16.63
2022-12-31T09:47:17.247Z,16.68
2022-12-31T09:48:17.259Z,16.74
2022-12-31T09:49:17.244Z,16.71
2022-12-31T09:50:17.217Z,16.77
2022-12-31T09:51:21.758Z,16.80
2022-12-31T09:52:18.198Z,16.80
2022-12-31T09:53:17.190Z,16.88
2022-12-31T09:54:17.205Z,16.92
2022-12-31T09:55:17.156Z,16.89
2022-12-31T09:56:17.169Z,16.89
2022-12-31T09:57:17.136Z,16.88
2022-12-31T09:58:17.138Z,16.88
2022-12-31T09:59:17.145Z,16.90
2022-12-31T10:00:17.114Z,16.96
2022-12-31T10:01:17.181Z,17.03
2022-12-31T10:02:17.302Z,17.00
2022-12-31T10:03:17.143Z,17.08
2022-12-31T10:04:17.088Z,17.14
2022-12-31T10:05:17.059Z,17.17
2022-12-31T10:06:17.046Z,17.17
2022-12-31T10:07:17.039Z,17.14
2022-12-31T10:08:17.027Z,17.15
2022-12-31T10:09:17.009Z,17.13
2022-12-31T10:10:17.021Z,17.07
2022-12-31T10:11:16.982Z,16.96
2022-12-31T10:12:16.981Z,16.83
2022-12-31T10:13:16.963Z,16.71
2022-12-31T10:14:17.247Z,16.56
2022-12-31T10:15:16.962Z,16.44
2022-12-31T10:16:17.024Z,16.33
2022-12-31T10:17:16.920Z,16.26
2022-12-31T10:18:16.916Z,16.22
2022-12-31T10:19:16.910Z,16.16
2022-12-31T10:20:16.933Z,16.16
2022-12-31T10:21:16.869Z,16.23
2022-12-31T10:22:16.862Z,16.31
2022-12-31T10:23:16.861Z,16.38
2022-12-31T10:24:16.863Z,16.41
2022-12-31T10:25:16.835Z,16.48
2022-12-31T10:26:16.819Z,16.49
2022-12-31T10:27:16.799Z,16.49
2022-12-31T10:28:16.804Z,16.50
2022-12-31T10:29:16.790Z,16.50
2022-12-31T10:30:16.825Z,16.52
2022-12-31T10:31:16.793Z,16.53
2022-12-31T10:32:16.754Z,16.58
2022-12-31T10:33:16.752Z,16.60
2022-12-31T10:34:16.734Z,16.59
2022-12-31T10:35:16.739Z,16.56
2022-12-31T10:36:16.739Z,16.58
2022-12-31T10:37:16.719Z,16.53
2022-12-31T10:38:16.693Z,16.55
2022-12-31T10:39:23.829Z,16.55
2022-12-31T10:40:17.787Z,16.53
2022-12-31T10:41:16.657Z,16.48
2022-12-31T10:42:16.652Z,16.37
2022-12-31T10:43:16.632Z,16.30
2022-12-31T10:44:16.624Z,16.16
2022-12-31T10:45:16.626Z,16.06
2022-12-31T10:46:22.694Z,16.00
2022-12-31T10:47:17.588Z,15.92
2022-12-31T10:48:16.587Z,15.88
2022-12-31T10:49:16.566Z,15.84
2022-12-31T10:50:16.605Z,15.79
2022-12-31T10:51:16.565Z,15.78
2022-12-31T10:52:16.539Z,15.74
2022-12-31T10:53:16.528Z,15.72
2022-12-31T10:54:16.510Z,15.67
2022-12-31T10:55:16.498Z,15.63
2022-12-31T10:56:16.516Z,15.60
2022-12-31T10:57:16.479Z,15.59
2022-12-31T10:58:16.477Z,15.59
2022-12-31T10:59:16.466Z,15.57
2022-12-31T11:00:16.558Z,15.56
2022-12-31T11:01:16.520Z,15.56
2022-12-31T11:02:16.649Z,15.60
2022-12-31T11:03:16.450Z,15.61
2022-12-31T11:04:16.410Z,15.61
2022-12-31T11:05:16.413Z,15.64
2022-12-31T11:06:16.410Z,15.63
2022-12-31T11:07:16.371Z,15.59
2022-12-31T11:08:16.358Z,15.57
2022-12-31T11:09:16.346Z,15.54
2022-12-31T11:10:16.377Z,15.54
2022-12-31T11:11:16.338Z,15.56
2022-12-31T11:12:16.339Z,15.57
2022-12-31T11:13:16.331Z,15.59
2022-12-31T11:14:16.299Z,15.61
2022-12-31T11:15:16.280Z,15.67
2022-12-31T11:16:16.297Z,15.72
2022-12-31T11:17:16.281Z,15.70
2022-12-31T11:18:16.250Z,15.72
2022-12-31T11:19:16.800Z,15.74
2022-12-31T11:20:16.219Z,15.76
2022-12-31T11:21:16.226Z,15.79
2022-12-31T11:22:16.224Z,15.85
2022-12-31T11:23:16.201Z,15.88
2022-12-31T11:24:16.182Z,15.92
2022-12-31T11:25:16.182Z,16.01
2022-12-31T11:26:16.190Z,16.15
2022-12-31T11:27:16.154Z,16.18
2022-12-31T11:28:16.133Z,16.18
2022-12-31T11:29:23.913Z,16.25
2022-12-31T11:30:16.117Z,16.31
2022-12-31T11:31:16.177Z,16.31
2022-12-31T11:32:16.123Z,16.34
2022-12-31T11:33:16.090Z,16.34
2022-12-31T11:34:16.070Z,16.37
2022-12-31T11:35:16.078Z,16.34
2022-12-31T11:36:16.051Z,16.37
2022-12-31T11:37:16.069Z,16.35
2022-12-31T11:38:16.028Z,16.37
2022-12-31T11:39:16.011Z,16.42
2022-12-31T11:40:16.002Z,16.49
2022-12-31T11:41:16.009Z,16.50
2022-12-31T11:42:15.981Z,16.53
2022-12-31T11:43:16.017Z,16.55
2022-12-31T11:44:15.964Z,16.52
2022-12-31T11:45:15.957Z,16.55
2022-12-31T11:46:15.982Z,16.56
2022-12-31T11:47:15.932Z,16.56
2022-12-31T11:48:32.407Z,16.55
2022-12-31T11:49:16.917Z,16.58
2022-12-31T11:50:15.894Z,16.56
2022-12-31T11:51:15.896Z,16.55
2022-12-31T11:52:21.054Z,16.53
2022-12-31T11:53:16.897Z,16.56
2022-12-31T11:54:15.876Z,16.58
2022-12-31T11:55:15.845Z,16.55
2022-12-31T11:56:15.837Z,16.55
2022-12-31T11:57:15.824Z,16.55
2022-12-31T11:58:15.801Z,16.56
2022-12-31T11:59:19.297Z,16.67
2022-12-31T12:00:15.785Z,16.68
2022-12-31T12:01:15.807Z,16.65
2022-12-31T12:02:15.765Z,16.74
2022-12-31T12:03:15.777Z,16.80
2022-12-31T12:04:15.802Z,16.83
2022-12-31T12:05:15.780Z,16.85
2022-12-31T12:06:15.720Z,16.86
2022-12-31T12:07:15.731Z,16.90
2022-12-31T12:08:15.717Z,16.90
2022-12-31T12:09:15.685Z,16.95
2022-12-31T12:10:15.704Z,16.95
2022-12-31T12:11:15.668Z,16.92
2022-12-31T12:12:15.664Z,16.93
2022-12-31T12:13:15.668Z,16.99
2022-12-31T12:14:15.627Z,16.98
2022-12-31T12:15:15.628Z,16.98
2022-12-31T12:16:15.683Z,17.00
2022-12-31T12:17:15.598Z,17.03
2022-12-31T12:18:15.613Z,17.03
2022-12-31T12:19:15.577Z,16.99
2022-12-31T12:20:15.578Z,17.03
2022-12-31T12:21:15.555Z,17.08
2022-12-31T12:22:15.547Z,17.13
2022-12-31T12:23:15.563Z,17.20
2022-12-31T12:24:15.517Z,17.28
2022-12-31T12:25:15.516Z,17.29
2022-12-31T12:26:15.510Z,17.35
2022-12-31T12:27:15.496Z,17.33
2022-12-31T12:28:15.472Z,17.29
2022-12-31T12:29:15.501Z,17.29
2022-12-31T12:30:15.458Z,17.29
2022-12-31T12:31:15.460Z,17.29
2022-12-31T12:32:15.434Z,17.30
2022-12-31T12:33:15.420Z,17.30
2022-12-31T12:34:15.440Z,17.32
2022-12-31T12:35:15.423Z,17.29
2022-12-31T12:36:15.398Z,17.29
2022-12-31T12:37:15.383Z,17.30
2022-12-31T12:38:15.370Z,17.33
2022-12-31T12:39:15.364Z,17.33
2022-12-31T12:40:15.375Z,17.36
2022-12-31T12:41:15.342Z,17.43
2022-12-31T12:42:15.330Z,17.43
2022-12-31T12:43:15.311Z,17.40
2022-12-31T12:44:15.347Z,17.41
2022-12-31T12:45:15.328Z,17.40
2022-12-31T12:46:15.334Z,17.35
2022-12-31T12:47:15.314Z,17.30
2022-12-31T12:48:15.253Z,17.25
2022-12-31T12:49:15.273Z,17.30
2022-12-31T12:50:15.233Z,17.32
2022-12-31T12:51:15.248Z,17.32
2022-12-31T12:52:15.219Z,17.38